^^
Grace C. Lehan Memorial Weather Station Historical Data
 
Daily Summary for October 19, 2019 Units:  English    Metric   Both
Daily Weekly Monthly Yearly Custom
  Current: High: Low: Average:
Temperature: 57.5 °F 62 °F 37.1 °F 48.3 °F
Dew Point: 41 °F 44.18 °F 35.09 °F 38.9 °F
Humidity: 54% 94% 44% 73%
Wind Speed: 0mph 5mph 0mph 0.4mph
Wind Gust: 0mph 10mph - -
WindCalm - - WNW
Pressure: 29.98 in 30.03 in 29.95 in -
Precipitation: 0 in      
Historical Graphs
 
 
Tabular Data for October 19, 2019
Time Temperature Dew Point Pressure Wind Wind Speed Wind Gust Humidity Rainfall Rate (Hourly) solar
00:00 47.3 °F 39.1 °F 29.95 in Calm     73% 0 in 0.00 W/m2
00:05 47.2 °F 39 °F 29.95 in Calm   5 mph 73% 0 in 0.00 W/m2
00:10 47 °F 38.81 °F 29.95 in Calm   5 mph 73% 0 in 0.00 W/m2
00:15 46.9 °F 38.71 °F 29.95 in Calm   6 mph 73% 0 in 0.00 W/m2
00:20 46.8 °F 38.61 °F 29.95 in Calm   6 mph 73% 0 in 0.00 W/m2
00:25 46.7 °F 38.87 °F 29.96 in Calm   6 mph 74% 0 in 0.00 W/m2
00:30 46.5 °F 38.67 °F 29.95 in Calm   6 mph 74% 0 in 0.00 W/m2
00:35 46.4 °F 38.58 °F 29.95 in Calm   3 mph 74% 0 in 0.00 W/m2
00:40 46.3 °F 38.48 °F 29.95 in Calm   3 mph 74% 0 in 0.00 W/m2
00:45 46.2 °F 38.38 °F 29.95 in Calm   3 mph 74% 0 in 0.00 W/m2
00:50 46.1 °F 38.29 °F 29.96 in Calm   4 mph 74% 0 in 0.00 W/m2
00:55 46.1 °F 38.63 °F 29.96 in Calm   4 mph 75% 0 in 0.00 W/m2
01:00 46 °F 38.53 °F 29.96 in Calm   4 mph 75% 0 in 0.00 W/m2
01:05 46 °F 38.53 °F 29.96 in Calm   3 mph 75% 0 in 0.00 W/m2
01:10 45.9 °F 38.44 °F 29.97 in Calm   3 mph 75% 0 in 0.00 W/m2
01:15 45.8 °F 38.34 °F 29.96 in Calm   3 mph 75% 0 in 0.00 W/m2
01:20 45.7 °F 38.24 °F 29.96 in Calm   3 mph 75% 0 in 0.00 W/m2
01:25 45.6 °F 38.15 °F 29.96 in Calm   3 mph 75% 0 in 0.00 W/m2
01:30 45.5 °F 38.39 °F 29.97 in Calm   3 mph 76% 0 in 0.00 W/m2
01:35 45.3 °F 37.86 °F 29.97 in Calm     75% 0 in 0.00 W/m2
01:40 45.2 °F 38.1 °F 29.97 in Calm     76% 0 in 0.00 W/m2
01:45 45.1 °F 38 °F 29.97 in Calm     76% 0 in 0.00 W/m2
01:50 45 °F 38.24 °F 29.97 in Calm     77% 0 in 0.00 W/m2
01:55 44.8 °F 38.04 °F 29.97 in Calm     77% 0 in 0.00 W/m2
02:00 44.7 °F 37.94 °F 29.97 in Calm     77% 0 in 0.00 W/m2
02:05 44.5 °F 38.08 °F 29.97 in Calm     78% 0 in 0.00 W/m2
02:10 44.3 °F 37.56 °F 29.98 in Calm     77% 0 in 0.00 W/m2
02:15 44 °F 37.59 °F 29.98 in Calm     78% 0 in 0.00 W/m2
02:20 43.5 °F 37.75 °F 29.98 in Calm     80% 0 in 0.00 W/m2
02:25 43.2 °F 37.46 °F 29.98 in Calm     80% 0 in 0.00 W/m2
02:30 42.9 °F 37.48 °F 29.98 in Calm     81% 0 in 0.00 W/m2
02:35 42.7 °F 37.6 °F 29.98 in Calm     82% 0 in 0.00 W/m2
02:40 42.7 °F 37.6 °F 29.98 in Calm     82% 0 in 0.00 W/m2
02:45 42.6 °F 37.19 °F 29.98 in Calm     81% 0 in 0.00 W/m2
02:50 42.6 °F 37.19 °F 29.98 in Calm     81% 0 in 0.00 W/m2
02:55 42.6 °F 37.19 °F 29.98 in Calm     81% 0 in 0.00 W/m2
03:00 42.7 °F 37.29 °F 29.98 in Calm     81% 0 in 0.00 W/m2
03:05 42.6 °F 37.19 °F 29.97 in Calm     81% 0 in 0.00 W/m2
03:10 42.2 °F 37.11 °F 29.97 in Calm     82% 0 in 0.00 W/m2
03:15 41.8 °F 37.03 °F 29.97 in Calm     83% 0 in 0.00 W/m2
03:20 41.4 °F 36.94 °F 29.97 in Calm     84% 0 in 0.00 W/m2
03:25 41.2 °F 37.04 °F 29.98 in Calm     85% 0 in 0.00 W/m2
03:30 40.9 °F 37.04 °F 29.98 in Calm     86% 0 in 0.00 W/m2
03:35 40.8 °F 37.24 °F 29.97 in Calm     87% 0 in 0.00 W/m2
03:40 40.6 °F 37.04 °F 29.98 in Calm   2 mph 87% 0 in 0.00 W/m2
03:45 40.5 °F 37.23 °F 29.98 in Calm   2 mph 88% 0 in 0.00 W/m2
03:50 40.4 °F 37.13 °F 29.98 in Calm   2 mph 88% 0 in 0.00 W/m2
03:55 40.2 °F 36.94 °F 29.98 in Calm   2 mph 88% 0 in 0.00 W/m2
04:01 40 °F 36.74 °F 29.97 in Calm     88% 0 in 0.00 W/m2
04:05 39.8 °F 36.54 °F 29.98 in Calm     88% 0 in 0.00 W/m2
04:10 39.5 °F 36.25 °F 29.98 in Calm     88% 0 in 0.00 W/m2
04:15 39.2 °F 35.95 °F 29.98 in Calm     88% 0 in 0.00 W/m2
04:20 39.1 °F 36.14 °F 29.98 in Calm     89% 0 in 0.00 W/m2
04:25 39 °F 36.32 °F 29.98 in Calm     90% 0 in 0.00 W/m2
04:30 39 °F 36.32 °F 29.98 in Calm     90% 0 in 0.00 W/m2
04:35 38.8 °F 36.12 °F 29.98 in Calm     90% 0 in 0.00 W/m2
04:40 38.8 °F 36.12 °F 29.98 in Calm     90% 0 in 0.00 W/m2
04:45 38.7 °F 36.3 °F 29.98 in Calm     91% 0 in 0.00 W/m2
04:50 38.7 °F 36.3 °F 29.98 in Calm     91% 0 in 0.00 W/m2
04:55 38.7 °F 36.3 °F 29.98 in Calm     91% 0 in 0.00 W/m2
05:00 38.6 °F 36.21 °F 29.98 in Calm     91% 0 in 0.00 W/m2
05:05 38.6 °F 36.21 °F 29.98 in Calm     91% 0 in 0.00 W/m2
05:10 38.6 °F 36.48 °F 29.98 in Calm     92% 0 in 0.00 W/m2
05:15 38.6 °F 36.21 °F 29.98 in Calm     91% 0 in 0.00 W/m2
05:20 38.5 °F 36.38 °F 29.98 in Calm     92% 0 in 0.00 W/m2
05:25 38.3 °F 35.91 °F 29.98 in Calm     91% 0 in 0.00 W/m2
05:30 38.2 °F 36.09 °F 29.98 in Calm     92% 0 in 0.00 W/m2
05:35 38.1 °F 35.99 °F 29.98 in Calm     92% 0 in 0.00 W/m2
05:40 38 °F 35.89 °F 29.99 in Calm     92% 0 in 0.00 W/m2
05:45 37.9 °F 35.79 °F 29.99 in Calm     92% 0 in 0.00 W/m2
05:50 37.8 °F 35.69 °F 29.99 in Calm     92% 0 in 0.00 W/m2
05:55 37.7 °F 35.59 °F 29.99 in Calm     92% 0 in 0.00 W/m2
06:00 37.7 °F 35.59 °F 29.99 in Calm     92% 0 in 0.00 W/m2
06:05 37.6 °F 35.49 °F 29.99 in Calm     92% 0 in 0.00 W/m2
06:10 37.5 °F 35.39 °F 29.99 in Calm     92% 0 in 0.00 W/m2
06:15 37.4 °F 35.29 °F 29.99 in Calm     92% 0 in 0.00 W/m2
06:20 37.2 °F 35.09 °F 29.99 in Calm     92% 0 in 0.00 W/m2
06:25 37.2 °F 35.09 °F 29.99 in Calm     92% 0 in 0.00 W/m2
06:30 37.2 °F 35.37 °F 29.99 in Calm     93% 0 in 0.00 W/m2
06:35 37.2 °F 35.37 °F 29.99 in Calm     93% 0 in 0.00 W/m2
06:40 37.3 °F 35.47 °F 30.00 in Calm     93% 0 in 0.00 W/m2
06:45 37.3 °F 35.47 °F 29.99 in Calm     93% 0 in 0.00 W/m2
06:50 37.4 °F 35.57 °F 30.00 in Calm     93% 0 in 0.00 W/m2
06:55 37.4 °F 35.57 °F 30.00 in Calm     93% 0 in 0.00 W/m2
07:00 37.4 °F 35.57 °F 30.00 in Calm     93% 0 in 0.00 W/m2
07:05 37.4 °F 35.57 °F 30.00 in Calm     93% 0 in 0.00 W/m2
07:10 37.3 °F 35.47 °F 30.00 in Calm     93% 0 in 0.00 W/m2
07:15 37.2 °F 35.37 °F 30.00 in Calm     93% 0 in 0.00 W/m2
07:20 37.1 °F 35.27 °F 30.00 in Calm     93% 0 in 5.00 W/m2
07:25 37.2 °F 35.37 °F 30.00 in Calm     93% 0 in 7.00 W/m2
07:30 37.3 °F 35.47 °F 30.00 in Calm     93% 0 in 7.00 W/m2
07:35 37.3 °F 35.47 °F 30.00 in Calm     93% 0 in 9.00 W/m2
07:40 37.4 °F 35.57 °F 30.01 in Calm     93% 0 in 11.00 W/m2
07:45 37.6 °F 35.76 °F 30.01 in Calm     93% 0 in 11.00 W/m2
07:50 37.7 °F 35.86 °F 30.01 in Calm     93% 0 in 12.00 W/m2
07:55 37.8 °F 35.96 °F 30.01 in Calm     93% 0 in 12.00 W/m2
08:00 38 °F 36.16 °F 30.01 in Calm     93% 0 in 12.00 W/m2
08:05 38.1 °F 36.26 °F 30.02 in Calm     93% 0 in 14.00 W/m2
08:10 38.3 °F 36.46 °F 30.02 in Calm     93% 0 in 14.00 W/m2
08:15 38.6 °F 37.03 °F 30.02 in Calm     94% 0 in 14.00 W/m2
08:20 38.9 °F 37.32 °F 30.02 in Calm     94% 0 in 16.00 W/m2
08:25 39.2 °F 37.62 °F 30.02 in Calm     94% 0 in 16.00 W/m2
08:30 39.4 °F 37.82 °F 30.03 in Calm     94% 0 in 16.00 W/m2
08:35 39.6 °F 38.02 °F 30.03 in Calm     94% 0 in 16.00 W/m2
08:40 39.8 °F 38.22 °F 30.03 in Calm     94% 0 in 18.00 W/m2
08:45 40.1 °F 38.52 °F 30.03 in Calm     94% 0 in 18.00 W/m2
08:50 40.3 °F 38.71 °F 30.03 in Calm     94% 0 in 23.00 W/m2
08:55 40.6 °F 39.01 °F 30.03 in Calm     94% 0 in 19.00 W/m2
09:00 41 °F 39.41 °F 30.03 in Calm     94% 0 in 19.00 W/m2
09:05 41.4 °F 39.81 °F 30.03 in Calm     94% 0 in 19.00 W/m2
09:10 41.8 °F 39.93 °F 30.03 in Calm     93% 0 in 9.00 W/m2
09:15 42.3 °F 40.15 °F 30.03 in Calm   4 mph 92% 0 in 21.00 W/m2
09:20 42.8 °F 40.36 °F 30.03 in Calm   4 mph 91% 0 in 19.00 W/m2
09:25 43.3 °F 40.28 °F 30.03 in Calm   4 mph 89% 0 in 19.00 W/m2
09:30 43.8 °F 40.19 °F 30.03 in Calm   5 mph 87% 0 in 21.00 W/m2
09:35 44.3 °F 40.08 °F 30.03 in Calm   4 mph 85% 0 in 21.00 W/m2
09:40 44.5 °F 40.28 °F 30.03 in Calm   4 mph 85% 0 in 21.00 W/m2
09:45 45.1 °F 40.25 °F 30.03 in Calm   4 mph 83% 0 in 21.00 W/m2
09:50 45.4 °F 39.92 °F 30.03 in West 2 mph 4 mph 81% 0 in 21.00 W/m2
09:55 45.8 °F 39.99 °F 30.03 in Calm   4 mph 80% 0 in 23.00 W/m2
10:00 46 °F 39.86 °F 30.03 in Calm   4 mph 79% 0 in 23.00 W/m2
10:05 46.3 °F 39.83 °F 30.03 in Calm   5 mph 78% 0 in 26.00 W/m2
10:10 46.8 °F 39.98 °F 30.02 in WNW 5 mph 7 mph 77% 0 in 25.00 W/m2
10:15 47.2 °F 39.69 °F 30.02 in Calm   9 mph 75% 0 in 25.00 W/m2
10:20 47.5 °F 39.98 °F 30.02 in Calm   9 mph 75% 0 in 26.00 W/m2
10:25 47.7 °F 39.83 °F 30.03 in NW 2 mph 9 mph 74% 0 in 26.00 W/m2
10:30 47.9 °F 40.02 °F 30.03 in Calm   9 mph 74% 0 in 28.00 W/m2
10:35 48.1 °F 39.87 °F 30.03 in Calm   2 mph 73% 0 in 28.00 W/m2
10:40 48.4 °F 40.16 °F 30.03 in Calm   6 mph 73% 0 in 49.00 W/m2
10:45 48.7 °F 40.45 °F 30.03 in Calm   6 mph 73% 0 in 28.00 W/m2
10:50 48.9 °F 40.28 °F 30.03 in Calm   6 mph 72% 0 in 47.00 W/m2
10:55 49.2 °F 40.57 °F 30.03 in Calm   6 mph 72% 0 in 32.00 W/m2
11:00 49.4 °F 40.76 °F 30.03 in Calm   6 mph 72% 0 in 44.00 W/m2
11:05 49.6 °F 40.23 °F 30.03 in Calm     70% 0 in 30.00 W/m2
11:10 49.8 °F 40.79 °F 30.02 in Calm   2 mph 71% 0 in 32.00 W/m2
11:15 50 °F 40.98 °F 30.03 in Calm   4 mph 71% 0 in 156.00 W/m2
11:20 50.4 °F 41 °F 30.03 in WNW 4 mph 6 mph 70% 0 in 46.00 W/m2
11:25 50.8 °F 41.01 °F 30.03 in Calm   6 mph 69% 0 in 84.00 W/m2
11:30 51 °F 40.82 °F 30.03 in WNW 1 mph 6 mph 68% 0 in 97.00 W/m2
11:35 51.3 °F 41.11 °F 30.03 in Calm   4 mph 68% 0 in 60.00 W/m2
11:40 51.6 °F 41.4 °F 30.03 in Calm   4 mph 68% 0 in 84.00 W/m2
11:45 51.8 °F 41.21 °F 30.03 in Calm   4 mph 67% 0 in 213.00 W/m2
11:50 52 °F 41.78 °F 30.02 in Calm   4 mph 68% 0 in 72.00 W/m2
11:55 52.3 °F 41.29 °F 30.02 in Calm   4 mph 66% 0 in 46.00 W/m2
12:00 52.9 °F 41.47 °F 30.02 in Calm   4 mph 65% 0 in 70.00 W/m2
12:05 53.4 °F 41.54 °F 30.02 in WNW 3 mph 10 mph 64% 0 in 33.00 W/m2
12:10 53.9 °F 40.78 °F 30.01 in Calm   10 mph 61% 0 in 81.00 W/m2
12:15 54.4 °F 41.25 °F 30.01 in Calm   10 mph 61% 0 in 47.00 W/m2
12:20 54.8 °F 41.62 °F 30.01 in Calm   10 mph 61% 0 in 86.00 W/m2
12:25 55.1 °F 41.05 °F 30.01 in WNW 4 mph 10 mph 59% 0 in 281.00 W/m2
12:30 55.5 °F 42.28 °F 30.00 in WNW 3 mph 10 mph 61% 0 in 128.00 W/m2
12:35 55.8 °F 41.26 °F 30.00 in WNW 2 mph 5 mph 58% 0 in 399.00 W/m2
12:40 56 °F 41.45 °F 30.00 in Calm   6 mph 58% 0 in 369.00 W/m2
12:45 56.2 °F 41.64 °F 30.00 in SW 3 mph 7 mph 58% 0 in 311.00 W/m2
12:50 56.3 °F 41.28 °F 30.00 in NW 2 mph 7 mph 57% 0 in 62.00 W/m2
12:55 56.4 °F 42.27 °F 30.00 in WNW 1 mph 7 mph 59% 0 in 67.00 W/m2
13:00 56.6 °F 41.1 °F 30.00 in WNW 2 mph 7 mph 56% 0 in 127.00 W/m2
13:05 56.9 °F 40.92 °F 29.99 in Calm   6 mph 55% 0 in 39.00 W/m2
13:10 57.2 °F 41.2 °F 29.99 in Calm   6 mph 55% 0 in 56.00 W/m2
13:15 57.7 °F 42.13 °F 29.99 in Calm   6 mph 56% 0 in 76.00 W/m2
13:20 58.1 °F 42.5 °F 29.98 in Calm   6 mph 56% 0 in 176.00 W/m2
13:25 58.6 °F 43.43 °F 29.98 in Calm   6 mph 57% 0 in 47.00 W/m2
13:30 59 °F 41.91 °F 29.98 in Calm   6 mph 53% 0 in 39.00 W/m2
13:35 59.1 °F 43.44 °F 29.98 in Calm   3 mph 56% 0 in 77.00 W/m2
13:40 59.2 °F 43.06 °F 29.98 in Calm   3 mph 55% 0 in 204.00 W/m2
13:45 59.4 °F 44.18 °F 29.98 in Calm   3 mph 57% 0 in 504.00 W/m2
13:50 59.8 °F 42.65 °F 29.98 in Calm   5 mph 53% 0 in 134.00 W/m2
13:55 59.9 °F 42.74 °F 29.97 in West 2 mph 5 mph 53% 0 in 102.00 W/m2
14:00 60 °F 42.84 °F 29.98 in Calm   6 mph 53% 0 in 76.00 W/m2
14:05 60.1 °F 42.43 °F 29.98 in Calm   6 mph 52% 0 in 40.00 W/m2
14:10 60.1 °F 42.93 °F 29.98 in Calm   6 mph 53% 0 in 167.00 W/m2
14:15 60.1 °F 42.93 °F 29.97 in West 2 mph 6 mph 53% 0 in 62.00 W/m2
14:20 60.1 °F 40.36 °F 29.97 in Calm   6 mph 48% 0 in 188.00 W/m2
14:25 60.2 °F 40.99 °F 29.97 in Calm   7 mph 49% 0 in 462.00 W/m2
14:30 60.3 °F 40.55 °F 29.97 in West 1 mph 10 mph 48% 0 in 60.00 W/m2
14:35 60.4 °F 41.17 °F 29.97 in West 4 mph 6 mph 49% 0 in 76.00 W/m2
14:40 60.5 °F 41.26 °F 29.97 in NW 4 mph 7 mph 49% 0 in 120.00 W/m2
14:45 60.6 °F 41.88 °F 29.97 in NW 1 mph 7 mph 50% 0 in 44.00 W/m2
14:50 60.8 °F 41.01 °F 29.97 in WNW 3 mph 7 mph 48% 0 in 33.00 W/m2
14:55 60.9 °F 40 °F 29.97 in WSW 5 mph 7 mph 46% 0 in 37.00 W/m2
15:00 61.1 °F 40.74 °F 29.97 in Calm   7 mph 47% 0 in 156.00 W/m2
15:05 61.4 °F 41.01 °F 29.97 in West 2 mph 3 mph 47% 0 in 350.00 W/m2
15:10 61.7 °F 40.16 °F 29.97 in WSW 1 mph 5 mph 45% 0 in 88.00 W/m2
15:15 61.7 °F 40.16 °F 29.97 in Calm   6 mph 45% 0 in 58.00 W/m2
15:20 61.6 °F 40.07 °F 29.97 in Calm   6 mph 45% 0 in 53.00 W/m2
15:25 61.7 °F 40.16 °F 29.97 in West 2 mph 6 mph 45% 0 in 88.00 W/m2
15:30 61.9 °F 40.91 °F 29.97 in NW 1 mph 6 mph 46% 0 in 74.00 W/m2
15:35 62 °F 40.44 °F 29.97 in West 1 mph 5 mph 45% 0 in 39.00 W/m2
15:40 61.9 °F 40.35 °F 29.97 in Calm   5 mph 45% 0 in 26.00 W/m2
15:45 61.8 °F 41.38 °F 29.97 in Calm   5 mph 47% 0 in 26.00 W/m2
15:50 61.7 °F 40.73 °F 29.97 in Calm   5 mph 46% 0 in 26.00 W/m2
15:55 61.6 °F 40.64 °F 29.97 in Calm   5 mph 46% 0 in 25.00 W/m2
16:01 61.4 °F 39.89 °F 29.97 in WSW 5 mph 5 mph 45% 0 in 25.00 W/m2
16:05 61.3 °F 39.22 °F 29.97 in Calm   5 mph 44% 0 in 25.00 W/m2
16:10 61.2 °F 39.13 °F 29.97 in Calm   6 mph 44% 0 in 25.00 W/m2
16:15 61.2 °F 39.13 °F 29.97 in Calm   6 mph 44% 0 in 23.00 W/m2
16:20 61.1 °F 39.62 °F 29.97 in Calm   6 mph 45% 0 in 23.00 W/m2
16:25 61.1 °F 40.18 °F 29.97 in Calm   6 mph 46% 0 in 23.00 W/m2
16:30 61 °F 40.09 °F 29.97 in WNW 2 mph 7 mph 46% 0 in 21.00 W/m2
16:35 61 °F 39.53 °F 29.97 in WNW 3 mph 3 mph 45% 0 in 21.00 W/m2
16:40 61 °F 38.95 °F 29.97 in WNW 3 mph 4 mph 44% 0 in 21.00 W/m2
16:45 60.9 °F 39.44 °F 29.97 in Calm   4 mph 45% 0 in 19.00 W/m2
16:50 60.9 °F 40 °F 29.97 in WNW 1 mph 4 mph 46% 0 in 19.00 W/m2
16:55 60.7 °F 40.37 °F 29.97 in WNW 2 mph 4 mph 47% 0 in 19.00 W/m2
17:00 60.7 °F 40.37 °F 29.97 in Calm   4 mph 47% 0 in 18.00 W/m2
17:05 60.5 °F 40.19 °F 29.97 in Calm   4 mph 47% 0 in 18.00 W/m2
17:10 60.4 °F 40.64 °F 29.97 in Calm   4 mph 48% 0 in 16.00 W/m2
17:15 60.2 °F 39.91 °F 29.97 in Calm   4 mph 47% 0 in 16.00 W/m2
17:20 60.2 °F 40.46 °F 29.97 in Calm   4 mph 48% 0 in 14.00 W/m2
17:25 60.1 °F 40.9 °F 29.97 in Calm   4 mph 49% 0 in 12.00 W/m2
17:30 59.9 °F 41.23 °F 29.97 in Calm   4 mph 50% 0 in 9.00 W/m2
17:35 59.7 °F 41.05 °F 29.97 in Calm   5 mph 50% 0 in 9.00 W/m2
17:40 59.5 °F 41.38 °F 29.98 in Calm   5 mph 51% 0 in 7.00 W/m2
17:45 59.3 °F 41.69 °F 29.98 in Calm   5 mph 52% 0 in 5.00 W/m2
17:50 58.9 °F 41.82 °F 29.98 in WNW 2 mph 5 mph 53% 0 in 0.00 W/m2
17:55 58.5 °F 41.45 °F 29.97 in Calm   5 mph 53% 0 in 0.00 W/m2
18:00 58.1 °F 41.08 °F 29.98 in Calm   5 mph 53% 0 in 0.00 W/m2
18:05 57.7 °F 41.19 °F 29.98 in Calm     54% 0 in 0.00 W/m2
18:10 57.5 °F 41 °F 29.98 in Calm     54% 0 in 0.00 W/m2
Grace C. Lehan Memorial Weather Station
Compliments of Weather Underground - 2 mb